Terminal Aerodrome Forecast
Issued by NWS

Current Version | Previous Version | Text Only | Print | Product List | Glossary Off
Versions: 1 2 3 4 5 6 7 8 9 10 11 12 13 14 15 16

849
FTUS41 KPBZ 231723
TAFMGW
TAF
KMGW 231723Z 2318/2418 14015G22KT P6SM SCT250
     FM240000 13008KT P6SM VCSH BKN100
     FM241000 13009KT P6SM -SHRA OVC050
     FM241400 12012G26KT P6SM -SHRA OVC025=

USA.gov is the U.S. government's official web portal to all federal, state and local government web resources and services.